Terminal Aerodrome Forecast
Issued by NWS Sterling, VA

Current Version | Previous Version | Text Only | Print | Product List | Glossary On
Versions: 1 2 3 4 5 6 7 8 9 10 11 12 13 14
000
FTUS41 KLWX 232333
TAFMRB
TAF
KMRB 232333Z 2400/2424 36004KT P6SM SKC
     FM240800 VRB03KT 5SM BR SKC
     FM241000 VRB03KT 6SM BR SKC
     FM241200 00000KT P6SM SKC=

USA.gov is the U.S. government's official web portal to all federal, state and local government web resources and services.